This is the latest recevied weather packets stored in our database for station/object W8XLR-2. If no packets are shown the sender has not sent any weather packets the latest 1 day(s).
| Time | Temp. | Humidity | Pressure | Rain* | Wind** | Luminosity | Snow |
|---|---|---|---|---|---|---|---|
| 1836274643 | 30.56° C | 60% | 1023.6 hPa | 0 mm | 0.45 m/s, 252° | - | - |
| 1836274474 | 30.56° C | 60% | 1023.6 hPa | 0 mm | 0.45 m/s, 252° | - | - |
| 1836274322 | 30.56° C | 60% | 1023.6 hPa | 0 mm | 0.45 m/s, 252° | - | - |
| 1836273988 | 30.56° C | 60% | 1023.6 hPa | 0 mm | 0.45 m/s, 252° | - | - |
| 1836273870 | 30.56° C | 60% | 1023.6 hPa | 0 mm | 0.45 m/s, 252° | - | - |
| 1778041013 | 10° C | 96% | 1011 hPa | 2.29 mm | 0.45 m/s, 357° | - | - |
| 1778040411 | 10° C | 96% | 1011.2 hPa | 3.05 mm | 0.45 m/s, 347° | - | - |
| 1778039809 | 10.56° C | 96% | 1011.4 hPa | 3.56 mm | 0 m/s | - | - |
| 1778039208 | 10.56° C | 96% | 1011.4 hPa | 3.56 mm | 0 m/s | - | - |
| 1778038609 | 10.56° C | 95% | 1011.4 hPa | 3.3 mm | 0.45 m/s, 310° | - | - |
| 1778038110 | 11.11° C | 96% | 1011.1 hPa | 2.54 mm | 0.45 m/s, 328° | - | - |
| 1778038009 | 11.11° C | 96% | 1011.1 hPa | 2.54 mm | 0.45 m/s, 328° | - | - |
| 1778037409 | 11.11° C | 96% | 1011.1 hPa | 2.54 mm | 0.45 m/s, 328° | - | - |
| 1778036809 | 11.67° C | 95% | 1011 hPa | 2.79 mm | 0.45 m/s, 23° | - | - |
| 1778036208 | 11.67° C | 95% | 1011 hPa | 2.79 mm | 0 m/s | - | - |
| 1778035608 | 11.67° C | 95% | 1011 hPa | 2.79 mm | 0 m/s | - | - |
| 1778035012 | 11.67° C | 95% | 1010.9 hPa | 3.3 mm | 0.45 m/s, 57° | - | - |
| 1778034410 | 12.22° C | 95% | 1011.2 hPa | 2.79 mm | 0.45 m/s, 32° | - | - |
| 1778033810 | 12.22° C | 95% | 1011.2 hPa | 2.79 mm | 0.45 m/s, 32° | - | - |
| 1778033211 | 12.22° C | 95% | 1010.9 hPa | 1.78 mm | 0 m/s | - | - |
| 1778032608 | 12.22° C | 95% | 1010.9 hPa | 1.78 mm | 0 m/s | - | - |
| 1778032008 | 12.22° C | 95% | 1010.9 hPa | 1.78 mm | 0 m/s | - | - |
| 1778031410 | 12.78° C | 95% | 1010.9 hPa | 2.29 mm | 0.45 m/s, 91° | - | - |
| 1778030807 | 12.78° C | 95% | 1010.7 hPa | 4.06 mm | 0.45 m/s, 102° | - | - |
| 1778030208 | 12.78° C | 95% | 1010.7 hPa | 4.06 mm | 0.45 m/s, 102° | - | - |
* Rain latest hour (hover to see other rain measurements)
** Current wind speed in m/s (hover to see current wind gust speed)